sensor_id;sensor_type;location;lat;lon;timestamp;P1;durP1;ratioP1;P2;durP2;ratioP2
74656;SDS011;63185;45.642;13.764;2023-02-01T00:01:05;48.85;;;22.95;;
74656;SDS011;63185;45.642;13.764;2023-02-01T00:03:32;46.92;;;21.38;;
74656;SDS011;63185;45.642;13.764;2023-02-01T00:05:58;42.30;;;21.10;;
74656;SDS011;63185;45.642;13.764;2023-02-01T00:08:25;42.83;;;19.95;;
74656;SDS011;63185;45.642;13.764;2023-02-01T00:11:04;42.97;;;19.23;;
74656;SDS011;63185;45.642;13.764;2023-02-01T00:13:31;41.25;;;18.20;;
74656;SDS011;63185;45.642;13.764;2023-02-01T00:16:02;38.33;;;17.20;;
74656;SDS011;63185;45.642;13.764;2023-02-01T00:18:32;38.85;;;16.73;;
74656;SDS011;63185;45.642;13.764;2023-02-01T00:20:58;36.13;;;15.82;;
74656;SDS011;63185;45.642;13.764;2023-02-01T00:23:23;39.20;;;17.00;;
74656;SDS011;63185;45.642;13.764;2023-02-01T00:25:49;35.63;;;16.15;;
74656;SDS011;63185;45.642;13.764;2023-02-01T00:28:15;34.78;;;15.30;;
74656;SDS011;63185;45.642;13.764;2023-02-01T00:30:41;39.20;;;14.45;;
74656;SDS011;63185;45.642;13.764;2023-02-01T00:33:06;33.83;;;12.88;;
74656;SDS011;63185;45.642;13.764;2023-02-01T00:35:33;34.17;;;13.73;;
74656;SDS011;63185;45.642;13.764;2023-02-01T00:37:59;35.97;;;13.57;;
74656;SDS011;63185;45.642;13.764;2023-02-01T00:40:25;35.83;;;13.32;;
74656;SDS011;63185;45.642;13.764;2023-02-01T00:42:51;34.30;;;14.05;;
74656;SDS011;63185;45.642;13.764;2023-02-01T00:45:17;32.00;;;13.48;;
74656;SDS011;63185;45.642;13.764;2023-02-01T00:47:43;33.67;;;13.25;;
74656;SDS011;63185;45.642;13.764;2023-02-01T00:50:09;34.03;;;13.93;;
74656;SDS011;63185;45.642;13.764;2023-02-01T00:52:35;34.58;;;11.63;;
74656;SDS011;63185;45.642;13.764;2023-02-01T00:55:01;27.85;;;10.15;;
74656;SDS011;63185;45.642;13.764;2023-02-01T00:57:27;30.50;;;11.43;;
74656;SDS011;63185;45.642;13.764;2023-02-01T00:59:52;30.92;;;9.98;;
74656;SDS011;63185;45.642;13.764;2023-02-01T01:02:18;32.80;;;10.63;;
74656;SDS011;63185;45.642;13.764;2023-02-01T01:04:44;27.77;;;9.93;;
74656;SDS011;63185;45.642;13.764;2023-02-01T01:07:09;24.73;;;9.25;;
74656;SDS011;63185;45.642;13.764;2023-02-01T01:09:35;23.38;;;9.40;;
74656;SDS011;63185;45.642;13.764;2023-02-01T01:12:01;26.42;;;10.32;;
74656;SDS011;63185;45.642;13.764;2023-02-01T01:14:30;24.08;;;9.07;;
74656;SDS011;63185;45.642;13.764;2023-02-01T01:16:56;30.77;;;9.88;;
74656;SDS011;63185;45.642;13.764;2023-02-01T01:19:22;26.77;;;9.82;;
74656;SDS011;63185;45.642;13.764;2023-02-01T01:21:47;26.17;;;9.82;;
74656;SDS011;63185;45.642;13.764;2023-02-01T01:24:13;24.70;;;9.80;;
74656;SDS011;63185;45.642;13.764;2023-02-01T01:26:39;25.35;;;9.27;;
74656;SDS011;63185;45.642;13.764;2023-02-01T01:29:05;29.17;;;9.60;;
74656;SDS011;63185;45.642;13.764;2023-02-01T01:31:31;26.33;;;9.13;;
74656;SDS011;63185;45.642;13.764;2023-02-01T01:33:57;26.75;;;10.10;;
74656;SDS011;63185;45.642;13.764;2023-02-01T01:36:24;24.77;;;8.63;;
74656;SDS011;63185;45.642;13.764;2023-02-01T01:38:51;25.15;;;8.40;;
74656;SDS011;63185;45.642;13.764;2023-02-01T01:41:19;27.75;;;9.75;;
74656;SDS011;63185;45.642;13.764;2023-02-01T01:46:32;26.05;;;8.30;;
74656;SDS011;63185;45.642;13.764;2023-02-01T01:49:05;24.30;;;9.13;;
74656;SDS011;63185;45.642;13.764;2023-02-01T01:51:38;25.15;;;8.88;;
74656;SDS011;63185;45.642;13.764;2023-02-01T01:54:12;24.30;;;9.18;;
74656;SDS011;63185;45.642;13.764;2023-02-01T01:56:42;25.27;;;8.68;;
74656;SDS011;63185;45.642;13.764;2023-02-01T02:01:37;24.67;;;8.38;;
74656;SDS011;63185;45.642;13.764;2023-02-01T02:04:03;24.40;;;8.45;;
74656;SDS011;63185;45.642;13.764;2023-02-01T02:06:36;26.58;;;9.40;;
74656;SDS011;63185;45.642;13.764;2023-02-01T02:09:10;31.60;;;11.57;;
74656;SDS011;63185;45.642;13.764;2023-02-01T02:11:36;28.50;;;10.90;;
74656;SDS011;63185;45.642;13.764;2023-02-01T02:14:02;24.70;;;9.88;;
74656;SDS011;63185;45.642;13.764;2023-02-01T02:16:36;25.08;;;9.00;;
74656;SDS011;63185;45.642;13.764;2023-02-01T02:21:50;22.05;;;8.52;;
74656;SDS011;63185;45.642;13.764;2023-02-01T02:24:43;30.67;;;8.93;;
74656;SDS011;63185;45.642;13.764;2023-02-01T02:37:58;24.70;;;8.57;;
74656;SDS011;63185;45.642;13.764;2023-02-01T02:40:36;22.73;;;7.78;;
74656;SDS011;63185;45.642;13.764;2023-02-01T02:49:23;26.67;;;8.02;;
74656;SDS011;63185;45.642;13.764;2023-02-01T02:52:02;30.77;;;9.68;;
74656;SDS011;63185;45.642;13.764;2023-02-01T02:54:52;27.67;;;8.73;;
74656;SDS011;63185;45.642;13.764;2023-02-01T02:57:31;29.13;;;8.02;;
74656;SDS011;63185;45.642;13.764;2023-02-01T03:00:24;27.13;;;8.80;;
74656;SDS011;63185;45.642;13.764;2023-02-01T03:03:12;26.85;;;9.02;;
74656;SDS011;63185;45.642;13.764;2023-02-01T03:05:56;26.20;;;8.20;;
74656;SDS011;63185;45.642;13.764;2023-02-01T03:08:26;30.88;;;8.50;;
74656;SDS011;63185;45.642;13.764;2023-02-01T03:16:28;30.70;;;8.82;;
74656;SDS011;63185;45.642;13.764;2023-02-01T03:19:01;35.60;;;10.20;;
74656;SDS011;63185;45.642;13.764;2023-02-01T03:23:58;33.15;;;10.45;;
74656;SDS011;63185;45.642;13.764;2023-02-01T03:26:28;34.80;;;10.73;;
74656;SDS011;63185;45.642;13.764;2023-02-01T03:29:05;34.63;;;10.73;;
74656;SDS011;63185;45.642;13.764;2023-02-01T03:31:37;29.38;;;10.52;;
74656;SDS011;63185;45.642;13.764;2023-02-01T03:34:03;37.72;;;11.93;;
74656;SDS011;63185;45.642;13.764;2023-02-01T03:36:30;39.05;;;12.82;;
74656;SDS011;63185;45.642;13.764;2023-02-01T03:42:01;39.88;;;15.38;;
74656;SDS011;63185;45.642;13.764;2023-02-01T03:44:32;40.25;;;15.55;;
74656;SDS011;63185;45.642;13.764;2023-02-01T03:49:41;44.45;;;17.15;;
74656;SDS011;63185;45.642;13.764;2023-02-01T03:52:11;43.35;;;17.35;;
74656;SDS011;63185;45.642;13.764;2023-02-01T03:54:41;44.55;;;18.13;;
74656;SDS011;63185;45.642;13.764;2023-02-01T03:57:09;43.72;;;17.75;;
74656;SDS011;63185;45.642;13.764;2023-02-01T03:59:42;44.45;;;18.05;;
74656;SDS011;63185;45.642;13.764;2023-02-01T04:02:09;46.10;;;18.45;;
74656;SDS011;63185;45.642;13.764;2023-02-01T04:04:36;43.70;;;17.77;;
74656;SDS011;63185;45.642;13.764;2023-02-01T04:07:02;43.42;;;18.02;;
74656;SDS011;63185;45.642;13.764;2023-02-01T04:09:28;46.13;;;17.73;;
74656;SDS011;63185;45.642;13.764;2023-02-01T04:11:54;43.45;;;18.48;;
74656;SDS011;63185;45.642;13.764;2023-02-01T04:14:19;40.47;;;17.55;;
74656;SDS011;63185;45.642;13.764;2023-02-01T04:16:45;42.47;;;17.60;;
74656;SDS011;63185;45.642;13.764;2023-02-01T04:19:11;45.50;;;17.55;;
74656;SDS011;63185;45.642;13.764;2023-02-01T04:21:37;40.40;;;17.23;;
74656;SDS011;63185;45.642;13.764;2023-02-01T04:24:03;45.38;;;17.65;;
74656;SDS011;63185;45.642;13.764;2023-02-01T04:26:29;43.20;;;17.42;;
74656;SDS011;63185;45.642;13.764;2023-02-01T04:28:55;45.33;;;18.35;;
74656;SDS011;63185;45.642;13.764;2023-02-01T04:31:21;49.15;;;18.70;;
74656;SDS011;63185;45.642;13.764;2023-02-01T04:33:53;46.70;;;19.25;;
74656;SDS011;63185;45.642;13.764;2023-02-01T04:36:22;46.42;;;18.70;;
74656;SDS011;63185;45.642;13.764;2023-02-01T04:38:48;46.40;;;18.98;;
74656;SDS011;63185;45.642;13.764;2023-02-01T04:41:14;43.92;;;18.15;;
74656;SDS011;63185;45.642;13.764;2023-02-01T04:43:43;50.03;;;19.53;;
74656;SDS011;63185;45.642;13.764;2023-02-01T04:46:10;45.03;;;19.85;;
74656;SDS011;63185;45.642;13.764;2023-02-01T04:48:36;45.65;;;20.92;;
74656;SDS011;63185;45.642;13.764;2023-02-01T04:51:02;45.95;;;21.30;;
74656;SDS011;63185;45.642;13.764;2023-02-01T04:53:27;53.47;;;21.30;;
74656;SDS011;63185;45.642;13.764;2023-02-01T04:55:54;49.83;;;21.17;;
74656;SDS011;63185;45.642;13.764;2023-02-01T04:58:20;51.13;;;22.75;;
74656;SDS011;63185;45.642;13.764;2023-02-01T05:00:46;44.45;;;21.70;;
74656;SDS011;63185;45.642;13.764;2023-02-01T05:03:12;47.70;;;22.80;;
74656;SDS011;63185;45.642;13.764;2023-02-01T05:05:38;50.85;;;23.17;;
74656;SDS011;63185;45.642;13.764;2023-02-01T05:08:03;53.22;;;23.90;;
74656;SDS011;63185;45.642;13.764;2023-02-01T05:10:29;53.80;;;23.42;;
74656;SDS011;63185;45.642;13.764;2023-02-01T05:12:55;52.95;;;24.05;;
74656;SDS011;63185;45.642;13.764;2023-02-01T05:15:39;51.22;;;24.45;;
74656;SDS011;63185;45.642;13.764;2023-02-01T05:18:05;52.72;;;24.67;;
74656;SDS011;63185;45.642;13.764;2023-02-01T05:20:30;56.63;;;25.98;;
74656;SDS011;63185;45.642;13.764;2023-02-01T05:22:56;52.33;;;23.80;;
74656;SDS011;63185;45.642;13.764;2023-02-01T05:25:22;58.80;;;27.08;;
74656;SDS011;63185;45.642;13.764;2023-02-01T05:27:48;56.25;;;26.38;;
74656;SDS011;63185;45.642;13.764;2023-02-01T05:30:14;54.13;;;26.42;;
74656;SDS011;63185;45.642;13.764;2023-02-01T05:32:39;54.45;;;26.92;;
74656;SDS011;63185;45.642;13.764;2023-02-01T05:35:05;55.70;;;26.73;;
74656;SDS011;63185;45.642;13.764;2023-02-01T05:37:31;58.25;;;26.75;;
74656;SDS011;63185;45.642;13.764;2023-02-01T05:39:57;52.85;;;26.35;;
74656;SDS011;63185;45.642;13.764;2023-02-01T05:42:23;61.03;;;29.05;;
74656;SDS011;63185;45.642;13.764;2023-02-01T05:44:48;60.83;;;29.88;;
74656;SDS011;63185;45.642;13.764;2023-02-01T05:47:14;59.45;;;28.38;;
74656;SDS011;63185;45.642;13.764;2023-02-01T05:49:40;55.35;;;28.08;;
74656;SDS011;63185;45.642;13.764;2023-02-01T05:52:05;56.88;;;28.45;;
74656;SDS011;63185;45.642;13.764;2023-02-01T05:54:31;69.20;;;29.83;;
74656;SDS011;63185;45.642;13.764;2023-02-01T05:56:57;60.03;;;30.23;;
74656;SDS011;63185;45.642;13.764;2023-02-01T05:59:22;62.47;;;30.83;;
74656;SDS011;63185;45.642;13.764;2023-02-01T06:01:48;63.47;;;31.00;;
74656;SDS011;63185;45.642;13.764;2023-02-01T06:04:14;58.97;;;30.60;;
74656;SDS011;63185;45.642;13.764;2023-02-01T06:06:40;62.10;;;30.33;;
74656;SDS011;63185;45.642;13.764;2023-02-01T06:09:05;61.65;;;31.38;;
74656;SDS011;63185;45.642;13.764;2023-02-01T06:11:31;66.30;;;31.63;;
74656;SDS011;63185;45.642;13.764;2023-02-01T06:13:57;68.78;;;33.67;;
74656;SDS011;63185;45.642;13.764;2023-02-01T06:16:23;63.95;;;31.95;;
74656;SDS011;63185;45.642;13.764;2023-02-01T06:18:48;69.50;;;33.35;;
74656;SDS011;63185;45.642;13.764;2023-02-01T06:21:14;71.43;;;34.05;;
74656;SDS011;63185;45.642;13.764;2023-02-01T06:23:48;69.47;;;33.95;;
74656;SDS011;63185;45.642;13.764;2023-02-01T06:26:23;61.55;;;32.15;;
74656;SDS011;63185;45.642;13.764;2023-02-01T06:28:49;66.15;;;34.33;;
74656;SDS011;63185;45.642;13.764;2023-02-01T06:31:15;67.97;;;33.40;;
74656;SDS011;63185;45.642;13.764;2023-02-01T06:33:40;67.00;;;33.53;;
74656;SDS011;63185;45.642;13.764;2023-02-01T06:36:07;72.55;;;34.40;;
74656;SDS011;63185;45.642;13.764;2023-02-01T06:38:35;68.15;;;34.33;;
74656;SDS011;63185;45.642;13.764;2023-02-01T06:41:01;66.00;;;34.80;;
74656;SDS011;63185;45.642;13.764;2023-02-01T06:43:28;69.70;;;34.78;;
74656;SDS011;63185;45.642;13.764;2023-02-01T06:45:58;71.70;;;34.47;;
74656;SDS011;63185;45.642;13.764;2023-02-01T06:48:29;64.47;;;33.92;;
74656;SDS011;63185;45.642;13.764;2023-02-01T06:50:55;72.00;;;33.38;;
74656;SDS011;63185;45.642;13.764;2023-02-01T06:53:20;66.38;;;34.15;;
74656;SDS011;63185;45.642;13.764;2023-02-01T06:55:56;67.60;;;34.80;;
74656;SDS011;63185;45.642;13.764;2023-02-01T06:58:23;66.65;;;33.30;;
74656;SDS011;63185;45.642;13.764;2023-02-01T07:00:49;71.47;;;34.08;;
74656;SDS011;63185;45.642;13.764;2023-02-01T07:03:15;70.05;;;33.03;;
74656;SDS011;63185;45.642;13.764;2023-02-01T07:05:41;75.03;;;34.33;;
74656;SDS011;63185;45.642;13.764;2023-02-01T07:08:07;72.60;;;35.35;;
74656;SDS011;63185;45.642;13.764;2023-02-01T07:10:33;68.03;;;34.45;;
74656;SDS011;63185;45.642;13.764;2023-02-01T07:12:59;73.50;;;34.42;;
74656;SDS011;63185;45.642;13.764;2023-02-01T07:15:25;70.03;;;35.45;;
74656;SDS011;63185;45.642;13.764;2023-02-01T07:17:52;67.10;;;32.92;;
74656;SDS011;63185;45.642;13.764;2023-02-01T07:20:19;68.90;;;34.47;;
74656;SDS011;63185;45.642;13.764;2023-02-01T07:22:45;71.05;;;34.08;;
74656;SDS011;63185;45.642;13.764;2023-02-01T07:25:11;68.57;;;33.67;;
74656;SDS011;63185;45.642;13.764;2023-02-01T07:27:37;66.97;;;33.05;;
74656;SDS011;63185;45.642;13.764;2023-02-01T07:30:03;66.88;;;33.90;;
74656;SDS011;63185;45.642;13.764;2023-02-01T07:32:30;65.95;;;32.65;;
74656;SDS011;63185;45.642;13.764;2023-02-01T07:34:56;59.33;;;31.25;;
74656;SDS011;63185;45.642;13.764;2023-02-01T07:37:22;68.35;;;31.90;;
74656;SDS011;63185;45.642;13.764;2023-02-01T07:39:49;64.53;;;30.90;;
74656;SDS011;63185;45.642;13.764;2023-02-01T07:42:15;60.78;;;30.58;;
74656;SDS011;63185;45.642;13.764;2023-02-01T07:44:41;61.20;;;30.10;;
74656;SDS011;63185;45.642;13.764;2023-02-01T07:47:07;61.13;;;30.63;;
74656;SDS011;63185;45.642;13.764;2023-02-01T07:49:32;56.15;;;29.80;;
74656;SDS011;63185;45.642;13.764;2023-02-01T07:51:59;60.22;;;29.75;;
74656;SDS011;63185;45.642;13.764;2023-02-01T07:54:25;57.85;;;29.58;;
74656;SDS011;63185;45.642;13.764;2023-02-01T07:56:50;54.50;;;29.30;;
74656;SDS011;63185;45.642;13.764;2023-02-01T07:59:16;60.35;;;30.05;;
74656;SDS011;63185;45.642;13.764;2023-02-01T08:01:42;55.97;;;29.08;;
74656;SDS011;63185;45.642;13.764;2023-02-01T08:04:09;59.38;;;29.85;;
74656;SDS011;63185;45.642;13.764;2023-02-01T08:06:37;57.78;;;30.20;;
74656;SDS011;63185;45.642;13.764;2023-02-01T08:09:03;54.28;;;28.70;;
74656;SDS011;63185;45.642;13.764;2023-02-01T08:11:30;57.40;;;29.60;;
74656;SDS011;63185;45.642;13.764;2023-02-01T08:13:56;58.83;;;29.73;;
74656;SDS011;63185;45.642;13.764;2023-02-01T08:16:22;61.92;;;30.70;;
74656;SDS011;63185;45.642;13.764;2023-02-01T08:18:49;62.05;;;30.95;;
74656;SDS011;63185;45.642;13.764;2023-02-01T08:21:23;56.80;;;30.30;;
74656;SDS011;63185;45.642;13.764;2023-02-01T08:23:50;58.47;;;30.73;;
74656;SDS011;63185;45.642;13.764;2023-02-01T08:26:17;58.30;;;31.17;;
74656;SDS011;63185;45.642;13.764;2023-02-01T08:28:47;47.10;;;22.98;;
74656;SDS011;63185;45.642;13.764;2023-02-01T08:31:18;59.00;;;30.20;;
74656;SDS011;63185;45.642;13.764;2023-02-01T08:33:49;61.88;;;30.80;;
74656;SDS011;63185;45.642;13.764;2023-02-01T08:36:17;61.00;;;29.95;;
74656;SDS011;63185;45.642;13.764;2023-02-01T08:38:43;59.58;;;31.92;;
74656;SDS011;63185;45.642;13.764;2023-02-01T08:41:13;60.60;;;31.95;;
74656;SDS011;63185;45.642;13.764;2023-02-01T08:43:41;62.67;;;31.58;;
74656;SDS011;63185;45.642;13.764;2023-02-01T08:46:07;53.60;;;29.00;;
74656;SDS011;63185;45.642;13.764;2023-02-01T08:48:37;57.55;;;30.15;;
74656;SDS011;63185;45.642;13.764;2023-02-01T08:51:10;61.90;;;29.70;;
74656;SDS011;63185;45.642;13.764;2023-02-01T08:53:37;55.20;;;28.98;;
74656;SDS011;63185;45.642;13.764;2023-02-01T08:56:06;52.28;;;28.70;;
74656;SDS011;63185;45.642;13.764;2023-02-01T08:58:32;55.47;;;28.65;;
74656;SDS011;63185;45.642;13.764;2023-02-01T09:01:09;51.65;;;27.80;;
74656;SDS011;63185;45.642;13.764;2023-02-01T09:03:37;56.42;;;29.23;;
74656;SDS011;63185;45.642;13.764;2023-02-01T09:06:04;51.58;;;28.02;;
74656;SDS011;63185;45.642;13.764;2023-02-01T09:08:32;55.65;;;28.48;;
74656;SDS011;63185;45.642;13.764;2023-02-01T09:11:02;56.70;;;28.30;;
74656;SDS011;63185;45.642;13.764;2023-02-01T09:13:30;49.20;;;26.50;;
74656;SDS011;63185;45.642;13.764;2023-02-01T09:15:56;48.38;;;27.13;;
74656;SDS011;63185;45.642;13.764;2023-02-01T09:18:24;47.95;;;27.75;;
74656;SDS011;63185;45.642;13.764;2023-02-01T09:20:50;47.45;;;25.85;;
74656;SDS011;63185;45.642;13.764;2023-02-01T09:23:16;47.45;;;26.33;;
74656;SDS011;63185;45.642;13.764;2023-02-01T09:25:42;43.30;;;25.75;;
74656;SDS011;63185;45.642;13.764;2023-02-01T09:28:08;44.92;;;25.77;;
74656;SDS011;63185;45.642;13.764;2023-02-01T09:30:34;48.33;;;27.27;;
74656;SDS011;63185;45.642;13.764;2023-02-01T09:33:01;48.33;;;26.90;;
74656;SDS011;63185;45.642;13.764;2023-02-01T09:35:28;51.20;;;27.35;;
74656;SDS011;63185;45.642;13.764;2023-02-01T09:37:54;48.67;;;27.92;;
74656;SDS011;63185;45.642;13.764;2023-02-01T09:40:20;51.30;;;27.02;;
74656;SDS011;63185;45.642;13.764;2023-02-01T09:47:47;52.33;;;28.03;;
74656;SDS011;63185;45.642;13.764;2023-02-01T09:50:18;49.83;;;28.10;;
74656;SDS011;63185;45.642;13.764;2023-02-01T09:53:00;47.40;;;25.90;;
74656;SDS011;63185;45.642;13.764;2023-02-01T09:55:38;43.53;;;25.08;;
74656;SDS011;63185;45.642;13.764;2023-02-01T09:58:52;47.63;;;25.25;;
74656;SDS011;63185;45.642;13.764;2023-02-01T10:01:02;47.70;;;26.45;;
74656;SDS011;63185;45.642;13.764;2023-02-01T10:03:30;47.30;;;26.77;;
74656;SDS011;63185;45.642;13.764;2023-02-01T10:13:56;47.83;;;27.40;;
74656;SDS011;63185;45.642;13.764;2023-02-01T10:25:13;53.83;;;30.02;;
74656;SDS011;63185;45.642;13.764;2023-02-01T10:27:47;54.17;;;28.23;;
74656;SDS011;63185;45.642;13.764;2023-02-01T10:32:40;52.53;;;29.35;;
74656;SDS011;63185;45.642;13.764;2023-02-01T10:35:17;56.28;;;30.38;;
74656;SDS011;63185;45.642;13.764;2023-02-01T10:37:46;56.30;;;31.55;;
74656;SDS011;63185;45.642;13.764;2023-02-01T10:42:44;56.50;;;29.30;;
74656;SDS011;63185;45.642;13.764;2023-02-01T10:45:15;55.70;;;29.40;;
74656;SDS011;63185;45.642;13.764;2023-02-01T10:47:47;57.20;;;29.90;;
74656;SDS011;63185;45.642;13.764;2023-02-01T10:53:01;60.53;;;31.10;;
74656;SDS011;63185;45.642;13.764;2023-02-01T10:58:01;63.20;;;34.23;;
74656;SDS011;63185;45.642;13.764;2023-02-01T11:00:56;64.55;;;34.03;;
74656;SDS011;63185;45.642;13.764;2023-02-01T11:03:34;66.97;;;33.10;;
74656;SDS011;63185;45.642;13.764;2023-02-01T11:06:26;67.20;;;34.95;;
74656;SDS011;63185;45.642;13.764;2023-02-01T11:08:51;69.53;;;36.50;;
74656;SDS011;63185;45.642;13.764;2023-02-01T11:11:19;66.43;;;37.07;;
74656;SDS011;63185;45.642;13.764;2023-02-01T11:13:51;69.72;;;37.50;;
74656;SDS011;63185;45.642;13.764;2023-02-01T11:16:19;73.65;;;37.75;;
74656;SDS011;63185;45.642;13.764;2023-02-01T11:18:44;73.13;;;38.42;;
74656;SDS011;63185;45.642;13.764;2023-02-01T11:21:17;73.95;;;39.15;;
74656;SDS011;63185;45.642;13.764;2023-02-01T11:23:43;75.78;;;40.75;;
74656;SDS011;63185;45.642;13.764;2023-02-01T11:26:20;127.68;;;57.88;;
74656;SDS011;63185;45.642;13.764;2023-02-01T11:28:58;148.90;;;64.03;;
74656;SDS011;63185;45.642;13.764;2023-02-01T11:31:29;396.50;;;141.00;;
74656;SDS011;63185;45.642;13.764;2023-02-01T11:33:58;115.10;;;55.50;;
74656;SDS011;63185;45.642;13.764;2023-02-01T11:36:31;169.60;;;70.60;;
74656;SDS011;63185;45.642;13.764;2023-02-01T11:41:58;94.95;;;50.72;;
74656;SDS011;63185;45.642;13.764;2023-02-01T11:44:41;101.97;;;53.30;;
74656;SDS011;63185;45.642;13.764;2023-02-01T11:49:50;99.10;;;52.15;;
74656;SDS011;63185;45.642;13.764;2023-02-01T11:52:24;99.85;;;53.15;;
74656;SDS011;63185;45.642;13.764;2023-02-01T12:12:08;110.75;;;58.17;;
74656;SDS011;63185;45.642;13.764;2023-02-01T12:17:27;107.13;;;54.97;;
74656;SDS011;63185;45.642;13.764;2023-02-01T12:22:48;128.55;;;69.63;;
74656;SDS011;63185;45.642;13.764;2023-02-01T12:28:37;104.63;;;55.30;;
74656;SDS011;63185;45.642;13.764;2023-02-01T12:33:56;115.18;;;59.70;;
74656;SDS011;63185;45.642;13.764;2023-02-01T12:36:46;145.27;;;73.30;;
74656;SDS011;63185;45.642;13.764;2023-02-01T12:39:31;120.07;;;60.80;;
74656;SDS011;63185;45.642;13.764;2023-02-01T12:42:07;122.95;;;64.35;;
74656;SDS011;63185;45.642;13.764;2023-02-01T12:44:43;113.60;;;59.22;;
74656;SDS011;63185;45.642;13.764;2023-02-01T12:50:03;115.90;;;58.95;;
74656;SDS011;63185;45.642;13.764;2023-02-01T12:52:52;114.22;;;60.50;;
74656;SDS011;63185;45.642;13.764;2023-02-01T12:58:17;110.82;;;57.90;;
74656;SDS011;63185;45.642;13.764;2023-02-01T13:01:02;112.22;;;58.17;;
74656;SDS011;63185;45.642;13.764;2023-02-01T13:03:38;127.72;;;63.47;;
74656;SDS011;63185;45.642;13.764;2023-02-01T13:11:16;120.85;;;64.30;;
74656;SDS011;63185;45.642;13.764;2023-02-01T13:13:52;126.60;;;68.25;;
74656;SDS011;63185;45.642;13.764;2023-02-01T13:16:49;129.82;;;67.88;;
74656;SDS011;63185;45.642;13.764;2023-02-01T13:22:05;132.93;;;70.55;;
74656;SDS011;63185;45.642;13.764;2023-02-01T13:27:28;139.57;;;75.18;;
74656;SDS011;63185;45.642;13.764;2023-02-01T13:43:00;146.87;;;78.93;;
74656;SDS011;63185;45.642;13.764;2023-02-01T13:45:32;141.85;;;74.38;;
74656;SDS011;63185;45.642;13.764;2023-02-01T13:48:04;144.55;;;75.95;;
74656;SDS011;63185;45.642;13.764;2023-02-01T13:50:35;143.15;;;76.05;;
74656;SDS011;63185;45.642;13.764;2023-02-01T13:55:46;147.20;;;78.88;;
74656;SDS011;63185;45.642;13.764;2023-02-01T13:58:37;140.20;;;75.07;;
74656;SDS011;63185;45.642;13.764;2023-02-01T14:03:49;163.32;;;92.75;;
74656;SDS011;63185;45.642;13.764;2023-02-01T14:14:07;173.27;;;96.95;;
74656;SDS011;63185;45.642;13.764;2023-02-01T14:21:53;197.32;;;112.50;;
74656;SDS011;63185;45.642;13.764;2023-02-01T14:24:25;191.85;;;110.55;;
74656;SDS011;63185;45.642;13.764;2023-02-01T14:26:56;187.85;;;108.70;;
74656;SDS011;63185;45.642;13.764;2023-02-01T14:29:34;198.97;;;111.57;;
74656;SDS011;63185;45.642;13.764;2023-02-01T14:32:06;190.45;;;109.85;;
74656;SDS011;63185;45.642;13.764;2023-02-01T14:39:54;193.80;;;107.78;;
74656;SDS011;63185;45.642;13.764;2023-02-01T14:42:47;222.63;;;125.75;;
74656;SDS011;63185;45.642;13.764;2023-02-01T15:01:29;191.48;;;109.05;;
74656;SDS011;63185;45.642;13.764;2023-02-01T15:09:44;193.55;;;108.72;;
74656;SDS011;63185;45.642;13.764;2023-02-01T15:14:27;197.60;;;111.90;;
74656;SDS011;63185;45.642;13.764;2023-02-01T15:16:54;199.30;;;110.15;;
74656;SDS011;63185;45.642;13.764;2023-02-01T15:19:21;193.23;;;105.80;;
74656;SDS011;63185;45.642;13.764;2023-02-01T15:21:52;185.98;;;103.20;;
74656;SDS011;63185;45.642;13.764;2023-02-01T15:24:21;182.98;;;104.50;;
74656;SDS011;63185;45.642;13.764;2023-02-01T15:26:48;176.57;;;100.20;;
74656;SDS011;63185;45.642;13.764;2023-02-01T15:29:15;195.75;;;103.57;;
74656;SDS011;63185;45.642;13.764;2023-02-01T15:31:43;185.30;;;102.15;;
74656;SDS011;63185;45.642;13.764;2023-02-01T15:34:11;184.63;;;99.18;;
74656;SDS011;63185;45.642;13.764;2023-02-01T15:36:37;169.65;;;94.40;;
74656;SDS011;63185;45.642;13.764;2023-02-01T15:39:17;179.65;;;98.05;;
74656;SDS011;63185;45.642;13.764;2023-02-01T15:41:49;179.85;;;96.82;;
74656;SDS011;63185;45.642;13.764;2023-02-01T15:46:55;174.25;;;97.15;;
74656;SDS011;63185;45.642;13.764;2023-02-01T15:49:31;181.07;;;97.45;;
74656;SDS011;63185;45.642;13.764;2023-02-01T15:52:02;178.02;;;97.50;;
74656;SDS011;63185;45.642;13.764;2023-02-01T15:54:29;170.57;;;94.97;;
74656;SDS011;63185;45.642;13.764;2023-02-01T15:57:01;177.98;;;96.57;;
74656;SDS011;63185;45.642;13.764;2023-02-01T15:59:29;172.93;;;97.93;;
74656;SDS011;63185;45.642;13.764;2023-02-01T16:02:00;169.15;;;93.47;;
74656;SDS011;63185;45.642;13.764;2023-02-01T16:04:26;175.25;;;94.82;;
74656;SDS011;63185;45.642;13.764;2023-02-01T16:07:02;170.85;;;91.40;;
74656;SDS011;63185;45.642;13.764;2023-02-01T16:12:28;171.48;;;94.25;;
74656;SDS011;63185;45.642;13.764;2023-02-01T16:14:56;169.45;;;94.95;;
74656;SDS011;63185;45.642;13.764;2023-02-01T16:17:22;166.25;;;93.13;;
74656;SDS011;63185;45.642;13.764;2023-02-01T16:19:48;162.85;;;91.50;;
74656;SDS011;63185;45.642;13.764;2023-02-01T16:22:14;167.75;;;90.32;;
74656;SDS011;63185;45.642;13.764;2023-02-01T16:24:40;165.05;;;92.53;;
74656;SDS011;63185;45.642;13.764;2023-02-01T16:27:06;161.07;;;86.70;;
74656;SDS011;63185;45.642;13.764;2023-02-01T16:29:32;175.30;;;90.72;;
74656;SDS011;63185;45.642;13.764;2023-02-01T16:31:58;166.77;;;91.68;;
74656;SDS011;63185;45.642;13.764;2023-02-01T16:34:24;157.15;;;88.50;;
74656;SDS011;63185;45.642;13.764;2023-02-01T16:36:51;163.20;;;90.97;;
74656;SDS011;63185;45.642;13.764;2023-02-01T16:39:20;162.93;;;90.28;;
74656;SDS011;63185;45.642;13.764;2023-02-01T16:41:46;164.23;;;88.78;;
74656;SDS011;63185;45.642;13.764;2023-02-01T16:44:12;164.68;;;87.60;;
74656;SDS011;63185;45.642;13.764;2023-02-01T16:46:42;170.27;;;90.70;;
74656;SDS011;63185;45.642;13.764;2023-02-01T16:49:20;163.13;;;89.70;;
74656;SDS011;63185;45.642;13.764;2023-02-01T16:51:47;167.30;;;90.13;;
74656;SDS011;63185;45.642;13.764;2023-02-01T16:54:14;161.93;;;90.10;;
74656;SDS011;63185;45.642;13.764;2023-02-01T16:56:40;161.85;;;90.30;;
74656;SDS011;63185;45.642;13.764;2023-02-01T16:59:07;161.38;;;88.40;;
74656;SDS011;63185;45.642;13.764;2023-02-01T17:01:33;163.95;;;91.53;;
74656;SDS011;63185;45.642;13.764;2023-02-01T17:03:59;163.95;;;89.93;;
74656;SDS011;63185;45.642;13.764;2023-02-01T17:06:25;166.00;;;89.40;;
74656;SDS011;63185;45.642;13.764;2023-02-01T17:08:57;169.63;;;89.40;;
74656;SDS011;63185;45.642;13.764;2023-02-01T17:11:24;168.00;;;89.88;;
74656;SDS011;63185;45.642;13.764;2023-02-01T17:13:51;166.40;;;91.05;;
74656;SDS011;63185;45.642;13.764;2023-02-01T17:18:43;167.95;;;90.30;;
74656;SDS011;63185;45.642;13.764;2023-02-01T17:21:11;191.35;;;102.28;;
74656;SDS011;63185;45.642;13.764;2023-02-01T17:23:37;222.20;;;120.53;;
74656;SDS011;63185;45.642;13.764;2023-02-01T17:26:03;205.07;;;113.53;;
74656;SDS011;63185;45.642;13.764;2023-02-01T17:28:29;191.95;;;106.55;;